Startpagina
METAR-TAF:

METAR-TAF

Vliegvelden :

Pohnpei, Micronesië

breedte: 06-59N, lengte: 158-12E, hoogte: 2 m

Actueel weer

Dit bericht is 11 uur en het 43 minuten geleden gemaakt, om 07:54 UTC
Wind 16 kt uit het oosten
Temperatuur 27°C
Vochtigheid 89%
Druk 1011 hPa
Zicht: 24.1 km
Gebroken wolken op 1700 ft, Stapelwolken.
Geheel bewolkt op 13000 ft

METAR: PTPN 240754Z 08016KT 15SM BKN017TCU OVC130 27/25 A2984 RMK TCU ALQDS LAST

Tijdstip: 06:37 (19:37 UTC)

Verwachting

Dit bericht is 13 uur en het 54 minuten geleden gemaakt, om 05:43 UTC
Verwachting geldig van 24 om 06 UTC tot 25 om 06 UTC
Wind 14 kt uit het oostnoordoosten met uitschieters tot 24 kt
Zicht: 10 km
Verspreide wolken op 1700 ft
Verspreide wolken op 4000 ft
Geheel bewolkt op 11000 ft
buien in de omgeving
Tijdelijke
van 24 om 06 UTC tot 24 om 09 UTC
Zicht: 8.0 km
Gebroken wolken op 1600 ft
lichte regenbuien

TAF: PTPN 240543Z 2406/2506 07014G24KT P6SM VCSH SCT017 SCT040 OVC110 TEMPO 2406/2409 5SM -SHRA BKN016

Waarnemingen en weersverwachtingen van meer dan 4000 vliegvelden (METAR en TAF).

De beschikbare stations zijn de gele en rode punten op de kaart.

Ga met uw muis naar het station om de naam te zien.

Klik dan om waarnemingen en weersverwachtingen te zien.

kaart wijzigen: klik op de groene knoppen met een zwart kruis om in te zoomen, op de groene knop met een streepje om uit te zoomen of op de groene pijlen voor aangrenzende kaarten.


METAR-TAF: